Time;durP1;ratioP1;P1;durP2;ratioP2;P2;SDS_P1;SDS_P2;PMS_P1;PMS_P2;Temp;Humidity;BMP_temperature;BMP_pressure;BME280_temperature;BME280_humidity;BME280_pressure;Samples;Min_cycle;Max_cycle;Signal;HPM_P1;HPM_P2
2022/04/12 00:00:30;;;;;;;40.67;27.00;;;;;;;16.58;34.59;93277.72;5067332;28;20033;-87
2022/04/12 00:02:56;;;;;;;35.90;26.20;;;;;;;16.58;34.98;93272.25;5030909;28;20037;-87
2022/04/12 00:05:22;;;;;;;35.20;25.23;;;;;;;16.60;34.72;93277.94;5047419;28;20049;-86
2022/04/12 00:07:47;;;;;;;36.22;25.52;;;;;;;16.57;35.03;93271.50;5031033;28;20029;-85
2022/04/12 00:10:12;;;;;;;36.90;25.58;;;;;;;16.56;35.03;93267.28;5063972;28;20491;-86
2022/04/12 00:12:38;;;;;;;35.47;24.77;;;;;;;16.57;34.91;93271.50;5033879;28;20028;-87
2022/04/12 00:15:04;;;;;;;33.67;23.60;;;;;;;16.57;35.23;93274.25;5050603;28;20043;-86
2022/04/12 00:20:14;;;;;;;33.97;24.63;;;;;;;16.56;34.93;93261.84;5068359;28;20354;-87
2022/04/12 00:22:40;;;;;;;35.38;24.23;;;;;;;16.55;34.92;93265.06;5033947;28;20036;-87
2022/04/12 00:25:09;;;;;;;36.58;25.58;;;;;;;16.55;35.18;93267.78;5067227;28;20502;-87
2022/04/12 00:27:35;;;;;;;33.42;23.30;;;;;;;16.54;34.75;93272.50;5034118;28;20040;-86
2022/04/12 00:30:00;;;;;;;32.38;23.55;;;;;;;16.54;34.84;93263.56;5050143;28;20567;-86
2022/04/12 00:32:25;;;;;;;33.50;23.70;;;;;;;16.54;35.20;93266.31;5050780;28;20041;-86
2022/04/12 00:34:51;;;;;;;36.45;23.83;;;;;;;16.54;34.98;93264.31;5031193;28;20056;-86
2022/04/12 00:37:17;;;;;;;32.67;23.20;;;;;;;16.53;34.94;93265.56;5034387;28;20094;-88
2022/04/12 00:39:42;;;;;;;33.42;22.83;;;;;;;16.55;34.97;93260.34;5031103;28;20036;-86
2022/04/12 00:42:08;;;;;;;34.75;22.73;;;;;;;16.54;35.19;93256.13;5029747;28;20041;-86
2022/04/12 00:44:33;;;;;;;33.92;24.00;;;;;;;16.54;35.41;93258.13;5046943;28;20025;-87
2022/04/12 00:46:59;;;;;;;37.30;24.35;;;;;;;16.54;34.91;93258.88;5082022;28;20090;-87
2022/04/12 00:49:24;;;;;;;31.45;22.73;;;;;;;16.52;35.27;93246.97;5086224;28;20062;-86
2022/04/12 00:51:50;;;;;;;33.55;22.83;;;;;;;16.54;34.91;93260.84;5069322;28;20036;-86
2022/04/12 00:54:19;;;;;;;30.42;21.38;;;;;;;16.55;35.17;93245.97;5069749;28;20074;-86
2022/04/12 00:56:45;;;;;;;32.83;22.55;;;;;;;16.53;35.06;93256.63;5069726;28;20131;-87
2022/04/12 00:59:11;;;;;;;31.85;21.98;;;;;;;16.53;34.94;93254.66;5052804;28;20083;-86
2022/04/12 01:01:36;;;;;;;31.95;21.48;;;;;;;16.53;35.00;93262.84;5046695;28;20041;-86
2022/04/12 01:04:01;;;;;;;32.00;22.40;;;;;;;16.52;35.21;93253.16;5046449;28;20049;-86
2022/04/12 01:06:27;;;;;;;29.60;21.20;;;;;;;16.51;35.25;93257.13;5045618;28;20405;-87
2022/04/12 01:08:52;;;;;;;31.42;20.88;;;;;;;16.51;35.33;93254.41;5052537;28;20033;-86
2022/04/12 01:11:18;;;;;;;27.55;19.92;;;;;;;16.51;34.94;93251.69;5048798;28;20040;-87
2022/04/12 01:13:43;;;;;;;30.42;21.38;;;;;;;16.50;35.14;93255.66;5048656;28;20032;-86
2022/04/12 01:16:08;;;;;;;31.52;21.38;;;;;;;16.52;35.37;93249.69;5048762;28;20040;-88
2022/04/12 01:18:34;;;;;;;30.02;20.95;;;;;;;16.50;35.15;93252.91;5049694;28;20043;-88
2022/04/12 01:21:00;;;;;;;28.40;20.38;;;;;;;16.50;35.38;93250.19;5049245;28;20036;-86
2022/04/12 01:23:41;;;;;;;28.80;20.92;;;;;;;16.51;34.96;93253.66;5065490;28;20098;-85
2022/04/12 01:26:07;;;;;;;28.88;20.70;;;;;;;16.50;35.09;93252.91;5049825;28;20044;-86
2022/04/12 01:28:32;;;;;;;29.45;20.27;;;;;;;16.48;35.07;93241.03;5049133;28;20047;-87
2022/04/12 01:30:58;;;;;;;27.80;19.10;;;;;;;16.49;35.43;93240.53;5028665;28;20068;-85
2022/04/12 01:33:23;;;;;;;29.15;21.75;;;;;;;16.49;35.28;93259.63;5012158;28;20126;-87
2022/04/12 01:35:49;;;;;;;29.40;20.02;;;;;;;16.49;35.43;93259.63;5029298;28;20044;-87
2022/04/12 01:38:14;;;;;;;28.08;19.77;;;;;;;16.49;35.03;93254.16;5043955;28;20221;-86
2022/04/12 01:40:39;;;;;;;27.77;19.13;;;;;;;16.50;35.38;93255.66;5032544;28;20494;-87
2022/04/12 01:43:05;;;;;;;29.25;19.10;;;;;;;16.48;35.23;93257.41;5048224;28;20025;-86
2022/04/12 01:45:30;;;;;;;24.35;17.58;;;;;;;16.46;35.48;93253.19;5066184;28;20051;-88
2022/04/12 01:47:56;;;;;;;29.35;20.13;;;;;;;16.47;35.13;93248.47;5032770;28;20434;-86
2022/04/12 01:50:21;;;;;;;29.00;18.75;;;;;;;16.46;35.33;93241.53;5064295;28;20037;-87
2022/04/12 01:52:47;;;;;;;26.98;18.75;;;;;;;16.49;35.14;93247.97;5048857;28;20041;-87
2022/04/12 01:55:12;;;;;;;26.42;17.85;;;;;;;16.48;35.01;93252.69;5032251;28;20048;-88
2022/04/12 01:57:38;;;;;;;27.20;18.13;;;;;;;16.45;35.16;93248.97;5048972;28;20040;-85
2022/04/12 02:00:05;;;;;;;25.88;18.55;;;;;;;16.48;35.39;93254.66;5048798;28;20036;-85
2022/04/12 02:02:30;;;;;;;24.65;17.67;;;;;;;16.48;35.34;93255.41;5047624;28;20032;-87
2022/04/12 02:04:56;;;;;;;28.20;18.65;;;;;;;16.46;35.05;93255.91;5031924;28;20032;-87
2022/04/12 02:07:22;;;;;;;27.98;18.50;;;;;;;16.47;35.01;93253.91;5064629;28;20091;-87
2022/04/12 02:09:47;;;;;;;26.63;18.80;;;;;;;16.46;35.01;93260.63;5028509;28;20048;-88
2022/04/12 02:12:12;;;;;;;23.63;17.08;;;;;;;16.45;35.08;93264.63;5027481;28;20079;-86
2022/04/12 02:14:38;;;;;;;26.55;18.17;;;;;;;16.46;35.22;93261.38;5015662;28;20063;-86
2022/04/12 02:17:03;;;;;;;25.85;17.88;;;;;;;16.46;34.98;93255.16;5045377;28;20030;-86
2022/04/12 02:19:29;;;;;;;25.02;17.23;;;;;;;16.44;34.98;93261.16;5028634;28;20041;-88
2022/04/12 02:21:54;;;;;;;23.27;16.05;;;;;;;16.43;35.12;93262.38;5028862;28;20033;-88
2022/04/12 02:24:19;;;;;;;24.02;16.80;;;;;;;16.44;35.05;93263.88;5044756;28;20041;-88
2022/04/12 02:26:45;;;;;;;25.52;16.77;;;;;;;16.44;35.29;93265.84;5044853;28;20345;-86
2022/04/12 02:29:13;;;;;;;26.33;16.73;;;;;;;16.43;35.36;93267.09;5044813;28;20065;-86
2022/04/12 02:31:39;;;;;;;23.33;16.77;;;;;;;16.43;35.11;93254.19;5045098;28;20037;-87
2022/04/12 02:34:04;;;;;;;25.15;16.15;;;;;;;16.44;35.09;93263.13;5028241;28;20055;-86
2022/04/12 02:36:29;;;;;;;22.88;16.15;;;;;;;16.43;34.96;93256.94;5032676;28;20075;-85
2022/04/12 02:38:55;;;;;;;25.00;16.70;;;;;;;16.43;35.28;93259.66;5084601;28;20483;-88
2022/04/12 02:41:20;;;;;;;25.17;17.27;;;;;;;16.43;35.06;93259.66;5068214;28;20040;-86
2022/04/12 02:43:45;;;;;;;22.23;14.85;;;;;;;16.43;34.98;93261.66;5068393;28;20055;-85
2022/04/12 02:46:11;;;;;;;21.42;15.48;;;;;;;16.42;35.28;93265.63;5085018;28;20036;-86
2022/04/12 02:48:36;;;;;;;23.08;16.00;;;;;;;16.42;35.12;93263.63;5068319;28;20559;-86
2022/04/12 02:51:02;;;;;;;23.17;15.73;;;;;;;16.42;34.91;93255.44;5049254;28;20041;-87
2022/04/12 02:53:27;;;;;;;21.77;15.35;;;;;;;16.43;35.32;93262.38;5011842;28;20044;-86
2022/04/12 02:55:52;;;;;;;22.42;15.93;;;;;;;16.42;35.36;93263.63;5011595;28;20103;-87
2022/04/12 02:58:18;;;;;;;23.45;15.45;;;;;;;16.42;35.39;93254.69;5044800;28;20554;-86
2022/04/12 03:00:44;;;;;;;24.75;16.48;;;;;;;16.41;35.24;93255.94;5044948;28;20567;-86
2022/04/12 03:03:10;;;;;;;21.80;14.93;;;;;;;16.41;35.47;93255.94;5017750;28;20033;-86
2022/04/12 03:05:35;;;;;;;21.20;14.73;;;;;;;16.40;35.32;93252.47;5044864;28;20566;-86
2022/04/12 03:08:01;;;;;;;22.88;15.75;;;;;;;16.40;35.23;93241.56;5028737;28;20103;-86
2022/04/12 03:10:27;;;;;;;23.17;15.25;;;;;;;16.41;35.20;93245.03;5059864;28;20094;-86
2022/04/12 03:12:52;;;;;;;20.92;14.60;;;;;;;16.41;35.09;93236.84;5045421;28;20124;-88
2022/04/12 03:15:18;;;;;;;22.05;15.02;;;;;;;16.39;35.12;93244.78;5047828;28;20033;-88
2022/04/12 03:17:43;;;;;;;20.70;14.90;;;;;;;16.39;35.10;93240.06;5048870;28;20057;-86
2022/04/12 03:20:09;;;;;;;19.83;13.65;;;;;;;16.40;35.31;93249.00;5032018;28;20040;-87
2022/04/12 03:22:34;;;;;;;20.38;14.35;;;;;;;16.41;35.23;93245.03;5032196;28;20044;-86
2022/04/12 03:25:01;;;;;;;20.52;13.85;;;;;;;16.41;35.45;93236.84;5047992;28;20045;-87
2022/04/12 03:27:27;;;;;;;18.83;13.10;;;;;;;16.37;35.01;93239.09;5047640;28;20482;-86
2022/04/12 03:29:52;;;;;;;18.80;13.23;;;;;;;16.37;35.15;93236.38;5031668;28;20044;-86
2022/04/12 03:32:18;;;;;;;21.52;13.48;;;;;;;16.38;35.45;93238.59;5067474;28;20041;-86
2022/04/12 03:34:44;;;;;;;20.55;13.55;;;;;;;16.37;35.13;93231.66;5068087;28;20029;-87
2022/04/12 03:37:10;;;;;;;21.40;13.85;;;;;;;16.38;35.28;93237.84;5047705;28;20043;-86
2022/04/12 03:39:35;;;;;;;20.48;14.80;;;;;;;16.37;35.45;93241.81;5039273;28;20029;-87
2022/04/12 03:42:01;;;;;;;18.85;13.63;;;;;;;16.37;35.50;93247.28;5049709;28;20651;-88
2022/04/12 03:44:26;;;;;;;18.58;13.57;;;;;;;16.43;35.10;93248.75;5048626;28;20368;-87
2022/04/12 03:46:52;;;;;;;20.85;14.27;;;;;;;16.38;35.17;93249.50;5048251;28;20029;-85
2022/04/12 03:49:17;;;;;;;18.20;12.55;;;;;;;16.40;35.12;93249.75;5030912;28;20430;-87
2022/04/12 03:51:42;;;;;;;18.90;12.88;;;;;;;16.42;35.25;93254.69;5049038;28;20025;-87
2022/04/12 03:54:08;;;;;;;19.50;13.43;;;;;;;16.42;35.03;93260.91;5047214;28;20029;-86
2022/04/12 03:56:34;;;;;;;18.52;12.73;;;;;;;16.40;35.29;93259.91;5030994;28;20502;-86
2022/04/12 03:58:59;;;;;;;20.05;12.82;;;;;;;16.43;35.17;93278.75;5047786;28;20033;-87
2022/04/12 04:01:25;;;;;;;19.38;13.23;;;;;;;16.42;34.85;93287.44;5046808;28;20074;-87
2022/04/12 04:03:51;;;;;;;19.13;11.05;;;;;;;16.38;34.26;93273.31;5047068;28;20052;-86
2022/04/12 04:06:16;;;;;;;15.77;10.10;;;;;;;16.40;33.35;93262.66;5030252;28;20049;-87
2022/04/12 04:08:42;;;;;;;17.00;11.07;;;;;;;16.33;33.33;93253.00;5045995;28;20041;-86
2022/04/12 04:11:07;;;;;;;15.48;10.40;;;;;;;16.34;32.83;93268.09;5029963;28;20037;-85
2022/04/12 04:13:36;;;;;;;18.17;10.93;;;;;;;16.34;33.63;93264.63;5031113;28;20040;-86
2022/04/12 04:16:03;;;;;;;27.20;12.30;;;;;;;16.35;33.85;93252.50;5053077;28;20045;-87
2022/04/12 04:18:28;;;;;;;19.98;12.05;;;;;;;16.34;33.91;93251.00;5065017;28;20064;-88
2022/04/12 04:20:54;;;;;;;17.52;12.05;;;;;;;16.37;34.51;93256.19;5058731;28;20101;-86
2022/04/12 04:23:21;;;;;;;20.73;13.02;;;;;;;16.36;34.75;93262.16;5030889;28;20041;-86
2022/04/12 04:25:48;;;;;;;16.88;10.95;;;;;;;16.34;34.99;93264.63;5049211;28;20045;-87
2022/04/12 04:28:13;;;;;;;17.20;11.73;;;;;;;16.38;34.59;93265.88;5046880;28;20480;-86
2022/04/12 04:30:44;;;;;;;25.15;12.00;;;;;;;16.40;34.79;93259.91;5034880;28;20139;-86
2022/04/12 04:33:09;;;;;;;21.73;12.73;;;;;;;16.43;34.92;93267.09;5052653;28;20064;-87
2022/04/12 04:35:35;;;;;;;27.98;13.60;;;;;;;16.43;34.51;93275.28;5050913;28;20044;-87
2022/04/12 04:38:00;;;;;;;33.58;15.52;;;;;;;16.47;34.96;93273.03;5069646;28;20101;-84
2022/04/12 04:40:26;;;;;;;32.30;18.25;;;;;;;16.45;35.02;93265.34;5035200;28;20044;-87
2022/04/12 04:42:52;;;;;;;125.38;67.65;;;;;;;16.49;34.71;93267.81;5050731;28;20403;-89
2022/04/12 04:45:17;;;;;;;55.97;23.70;;;;;;;16.51;34.60;93276.25;5045148;28;20037;-86
2022/04/12 04:47:57;;;;;;;62.50;23.25;;;;;;;16.55;34.75;93262.34;5051879;28;20029;-90
2022/04/12 04:50:24;;;;;;;55.30;21.95;;;;;;;16.57;34.66;93274.25;5040881;28;20051;-88
2022/04/12 04:52:50;;;;;;;57.70;22.88;;;;;;;16.52;34.63;93275.00;5053439;28;20036;-88
2022/04/12 04:55:15;;;;;;;64.22;23.83;;;;;;;16.54;34.67;93277.22;5035531;28;20036;-92
2022/04/12 04:57:42;;;;;;;71.78;24.98;;;;;;;16.46;34.36;93279.72;5044038;28;20617;-90
2022/04/12 05:00:15;;;;;;;47.85;21.45;;;;;;;16.39;31.13;93289.19;5023459;28;20040;-91
2022/04/12 05:02:42;;;;;;;58.13;17.42;;;;;;;16.35;29.45;93287.94;5039723;28;20051;-91
2022/04/12 05:05:08;;;;;;;30.52;12.05;;;;;;;16.30;28.87;93288.69;5051065;28;20051;-91
2022/04/12 05:07:33;;;;;;;42.22;11.32;;;;;;;16.11;28.15;93299.41;5041155;28;20406;-88
2022/04/12 05:10:00;;;;;;;45.65;8.43;;;;;;;16.11;26.82;93289.25;5029124;28;20047;-90
2022/04/12 05:12:25;;;;;;;41.45;13.43;;;;;;;16.01;26.73;93306.38;5050345;28;20051;-89
2022/04/12 05:14:50;;;;;;;37.40;9.13;;;;;;;15.95;26.90;93300.91;5028719;28;20041;-89
2022/04/12 05:17:26;;;;;;;20.77;8.07;;;;;;;15.92;26.38;93301.16;5027498;28;20029;-90
2022/04/12 05:19:53;;;;;;;24.80;6.65;;;;;;;15.81;26.44;93309.34;5054048;28;20036;-90
2022/04/12 05:22:19;;;;;;;20.05;6.07;;;;;;;15.76;26.31;93310.84;5045785;28;20036;-90
2022/04/12 05:24:46;;;;;;;23.10;5.30;;;;;;;15.78;26.18;93308.38;5012257;28;20048;-89
2022/04/12 05:27:12;;;;;;;99.95;11.85;;;;;;;15.70;25.88;93310.09;4995429;28;20052;-91
2022/04/12 05:29:37;;;;;;;25.63;5.05;;;;;;;15.74;26.25;93311.34;4982582;28;20052;-90
2022/04/12 05:32:04;;;;;;;55.13;8.93;;;;;;;15.72;26.34;93310.34;5005621;28;20045;-87
2022/04/12 05:34:29;;;;;;;51.80;11.70;;;;;;;15.81;26.76;93317.50;5029153;28;20041;-88
2022/04/12 05:36:55;;;;;;;68.43;13.77;;;;;;;15.91;26.39;93305.13;5022691;28;20056;-91
2022/04/12 05:39:20;;;;;;;63.30;12.43;;;;;;;15.96;26.58;93313.31;5005143;28;20095;-92
2022/04/12 05:41:46;;;;;;;54.65;16.90;;;;;;;15.94;26.89;93296.69;4999273;28;20124;-90
2022/04/12 05:44:11;;;;;;;52.03;16.20;;;;;;;15.92;27.18;93314.78;5060858;22;20036;-90
2022/04/12 05:46:47;;;;;;;52.25;20.67;;;;;;;15.97;27.41;93308.59;5056012;28;20042;-92
2022/04/12 05:49:12;;;;;;;61.65;26.42;;;;;;;16.00;27.91;93307.59;5066145;28;20089;-90
2022/04/12 05:51:40;;;;;;;77.28;26.40;;;;;;;16.06;28.15;93314.53;5051111;28;20032;-89
2022/04/12 05:54:06;;;;;;;46.55;17.33;;;;;;;16.08;28.02;93312.03;5066210;28;20047;-90
2022/04/12 05:56:31;;;;;;;56.05;22.83;;;;;;;16.15;28.09;93318.25;5049319;28;20036;-92
2022/04/12 05:58:57;;;;;;;80.22;35.75;;;;;;;16.17;28.07;93318.50;5035633;28;20084;-90
2022/04/12 06:01:23;;;;;;;96.78;38.67;;;;;;;16.19;28.55;93319.47;5043587;28;20047;-92
2022/04/12 06:03:49;;;;;;;111.43;49.33;;;;;;;16.24;28.67;93315.25;5065051;28;20044;-91
2022/04/12 06:06:16;;;;;;;132.82;63.58;;;;;;;16.28;29.05;93326.63;5063911;28;20043;-91
2022/04/12 06:08:41;;;;;;;172.43;87.20;;;;;;;16.34;29.56;93319.94;5042917;28;20029;-91
2022/04/12 06:11:07;;;;;;;138.30;75.03;;;;;;;16.40;29.30;93323.41;5043808;28;20028;-90
2022/04/12 06:13:32;;;;;;;121.80;58.42;;;;;;;16.43;29.45;93321.66;5053644;28;20044;-91
2022/04/12 06:15:59;;;;;;;196.40;101.60;;;;;;;16.46;29.96;93318.66;5051221;28;20038;-91
2022/04/12 06:18:24;;;;;;;147.73;80.25;;;;;;;16.48;29.73;93318.16;5044722;28;20051;-88
2022/04/12 06:20:50;;;;;;;138.57;78.25;;;;;;;16.53;29.41;93320.13;5064779;28;20036;-92
2022/04/12 06:23:17;;;;;;;167.25;91.40;;;;;;;16.56;29.59;93327.31;5038468;28;20032;-92
2022/04/12 06:25:43;;;;;;;154.20;81.55;;;;;;;16.54;29.50;93323.63;5063260;28;20040;-92
2022/04/12 06:28:09;;;;;;;143.60;81.30;;;;;;;16.58;29.27;93332.28;5039204;28;20051;-91
2022/04/12 06:30:35;;;;;;;136.73;76.10;;;;;;;16.56;29.52;93330.06;5051583;28;20052;-93
2022/04/12 06:33:03;;;;;;;121.28;69.85;;;;;;;16.57;30.46;93333.53;5051571;28;20051;-92
2022/04/12 06:35:28;;;;;;;132.45;67.93;;;;;;;16.57;30.46;93347.19;5050405;28;20100;-92
2022/04/12 06:37:56;;;;;;;197.02;78.45;;;;;;;16.61;30.38;93342.22;5044603;28;20036;-92
2022/04/12 06:40:22;;;;;;;181.95;78.35;;;;;;;16.62;29.83;93333.53;5067142;28;20062;-91
2022/04/12 06:42:47;;;;;;;213.07;85.82;;;;;;;16.65;29.33;93340.00;5048440;28;20368;-90
2022/04/12 06:45:13;;;;;;;181.73;77.80;;;;;;;16.64;29.69;93349.44;5054202;28;20108;-92
2022/04/12 06:47:40;;;;;;;191.43;79.93;;;;;;;16.61;29.74;93345.69;5049022;28;20047;-92
2022/04/12 06:50:05;;;;;;;167.85;69.70;;;;;;;16.64;30.76;93349.44;5060340;28;20092;-89
2022/04/12 06:52:32;;;;;;;225.13;79.78;;;;;;;16.66;29.69;93344.97;5048098;28;20035;-92
2022/04/12 06:54:57;;;;;;;200.55;75.05;;;;;;;16.67;29.88;93345.69;5069770;28;20028;-89
2022/04/12 06:57:23;;;;;;;211.75;72.95;;;;;;;16.70;30.07;93350.88;5060530;28;20315;-91
2022/04/12 06:59:48;;;;;;;201.55;74.60;;;;;;;16.72;30.13;93344.91;5047900;28;20039;-90
2022/04/12 07:02:14;;;;;;;183.68;68.28;;;;;;;16.73;29.92;93338.97;5058911;28;20077;-90
2022/04/12 07:04:40;;;;;;;148.82;61.47;;;;;;;16.73;30.47;93336.22;5063346;28;20485;-89
2022/04/12 07:07:08;;;;;;;168.73;64.85;;;;;;;16.74;30.51;93336.97;5059111;28;20047;-90
2022/04/12 07:09:34;;;;;;;203.55;70.80;;;;;;;16.76;30.70;93340.69;5083650;28;20044;-91
2022/04/12 07:12:01;;;;;;;166.55;66.45;;;;;;;16.79;30.19;93342.41;5057943;28;20044;-90
2022/04/12 07:14:29;;;;;;;164.52;69.43;;;;;;;16.77;30.46;93333.25;5071199;28;20039;-90
2022/04/12 07:16:55;;;;;;;199.57;81.05;;;;;;;16.81;30.15;93343.91;5047215;28;20043;-91
2022/04/12 07:19:20;;;;;;;236.73;99.30;;;;;;;16.80;30.31;93334.97;5053089;28;20486;-92
2022/04/12 07:21:47;;;;;;;190.48;89.20;;;;;;;16.83;30.00;93341.41;5047210;28;20050;-92
2022/04/12 07:24:12;;;;;;;190.18;82.60;;;;;;;16.82;30.45;93335.22;5050079;28;20039;-91
2022/04/12 07:26:38;;;;;;;183.82;79.22;;;;;;;16.81;30.56;93344.66;5045290;28;20028;-90
2022/04/12 07:29:03;;;;;;;162.52;71.07;;;;;;;16.84;31.40;93340.91;5046048;28;20478;-90
2022/04/12 07:31:29;;;;;;;152.93;71.32;;;;;;;16.86;30.99;93340.41;5058132;28;20040;-88
2022/04/12 07:33:54;;;;;;;149.82;66.05;;;;;;;16.90;31.06;93333.44;5054527;28;20043;-87
2022/04/12 07:36:20;;;;;;;241.90;79.50;;;;;;;16.91;30.77;93348.56;5038089;28;21294;-91
2022/04/12 07:38:45;;;;;;;202.02;68.43;;;;;;;16.90;30.72;93344.34;5041577;28;20086;-88
2022/04/12 07:41:11;;;;;;;184.95;70.32;;;;;;;16.91;30.59;93345.09;5056784;28;20406;-89
2022/04/12 07:43:36;;;;;;;197.77;74.60;;;;;;;16.92;30.99;93339.13;5057044;28;20040;-89
2022/04/12 07:46:02;;;;;;;195.52;73.30;;;;;;;16.92;30.39;93339.13;5071579;28;20109;-89
2022/04/12 07:48:27;;;;;;;168.93;62.72;;;;;;;16.93;30.88;93340.63;5038424;28;20048;-89
2022/04/12 07:50:54;;;;;;;195.75;64.28;;;;;;;16.95;30.71;93334.66;5069702;28;20070;-89
2022/04/12 07:53:19;;;;;;;193.55;65.50;;;;;;;16.97;30.51;93337.63;5055588;28;20032;-90
2022/04/12 07:55:45;;;;;;;184.98;65.88;;;;;;;16.97;30.75;93329.44;5041033;28;20043;-90
2022/04/12 07:58:10;;;;;;;148.32;55.22;;;;;;;16.97;30.91;93329.44;5055755;28;20047;-90
2022/04/12 08:00:36;;;;;;;151.20;55.60;;;;;;;16.96;30.68;93320.50;5073022;28;20098;-89
2022/04/12 08:03:01;;;;;;;132.88;56.55;;;;;;;17.00;30.76;93323.72;5043182;28;20047;-89
2022/04/12 08:05:26;;;;;;;133.98;53.03;;;;;;;16.96;30.85;93317.78;5037284;28;20033;-93
2022/04/12 08:07:52;;;;;;;127.35;54.70;;;;;;;16.99;30.75;93326.94;5042337;28;20040;-90
2022/04/12 08:10:18;;;;;;;107.80;45.40;;;;;;;16.99;30.48;93324.22;5056596;28;20090;-91
2022/04/12 08:12:52;;;;;;;127.22;49.65;;;;;;;16.96;31.05;93322.50;5059320;28;20051;-91
2022/04/12 08:15:18;;;;;;;145.88;54.55;;;;;;;17.00;30.56;93337.38;5039596;28;20024;-90
2022/04/12 08:17:48;;;;;;;147.27;55.13;;;;;;;17.00;30.70;93342.09;5043769;28;20109;-91
2022/04/12 08:20:27;;;;;;;126.90;49.30;;;;;;;16.98;31.00;93334.41;5057877;28;20040;-93
2022/04/12 08:23:07;;;;;;;119.47;47.72;;;;;;;17.04;30.97;93334.38;5093542;28;20124;-90
2022/04/12 08:25:34;;;;;;;121.07;51.30;;;;;;;17.02;30.59;93337.63;5055647;28;20040;-90
2022/04/12 08:28:16;;;;;;;99.68;47.15;;;;;;;16.99;31.17;93326.94;5081317;28;20108;-93
2022/04/12 08:30:43;;;;;;;127.10;48.33;;;;;;;17.01;30.89;93333.41;5088576;28;20027;-93
2022/04/12 08:41:00;;;;;;;88.88;37.63;;;;;;;17.04;31.30;93337.13;3076895;22;20453;-91
2022/04/12 08:43:29;;;;;;;116.38;43.97;;;;;;;17.03;30.93;93333.63;5012459;22;20423;-94
2022/04/12 08:46:20;;;;;;;94.35;41.75;;;;;;;17.05;31.30;93335.88;4991856;28;20061;-93
2022/04/12 08:48:46;;;;;;;111.97;40.55;;;;;;;17.04;31.54;93335.13;4975040;28;20488;-93
2022/04/12 08:51:46;;;;;;;105.45;46.85;;;;;;;17.03;31.85;93336.38;4940255;28;20043;-95
2022/04/12 08:54:14;;;;;;;120.85;48.10;;;;;;;17.05;31.32;93336.63;4923197;28;20041;-92
2022/04/12 08:56:40;;;;;;;131.02;58.10;;;;;;;17.06;31.36;93338.09;4937451;28;20042;-89
2022/04/12 08:59:05;;;;;;;147.65;72.60;;;;;;;17.08;31.25;93343.06;4932604;28;20497;-89
2022/04/12 09:01:31;;;;;;;174.15;79.15;;;;;;;17.06;31.72;93338.09;4940288;28;20433;-88
2022/04/12 09:03:56;;;;;;;225.15;122.95;;;;;;;17.10;31.57;93346.03;4965041;28;20054;-88
2022/04/12 09:06:22;;;;;;;230.65;116.85;;;;;;;17.10;31.17;93343.31;4968638;28;20545;-89
2022/04/12 09:08:47;;;;;;;254.63;101.00;;;;;;;17.09;31.21;93336.34;4949276;28;20754;-90
2022/04/12 09:11:13;;;;;;;204.43;101.70;;;;;;;17.10;31.30;93341.28;4936611;28;20059;-87
2022/04/12 09:13:40;;;;;;;173.80;68.30;;;;;;;17.12;31.49;93344.25;4966146;28;20041;-92
2022/04/12 09:16:10;;;;;;;166.75;68.15;;;;;;;17.12;31.52;93338.06;5004708;22;20049;-95
2022/04/12 09:19:30;;;;;;;166.63;86.57;;;;;;;17.10;31.77;93346.75;5026607;22;20024;-94
2022/04/12 09:22:02;;;;;;;149.25;74.70;;;;;;;17.12;31.69;93335.31;4996141;28;20303;-93
2022/04/12 09:24:28;;;;;;;139.98;69.72;;;;;;;17.13;31.21;93328.63;4961211;28;20042;-92
2022/04/12 09:26:55;;;;;;;215.60;103.15;;;;;;;17.13;31.39;93343.00;4912254;29;20153;-92
2022/04/12 09:29:27;;;;;;;213.90;103.95;;;;;;;17.14;31.27;93339.03;4916863;29;20130;-89
2022/04/12 09:31:58;;;;;;;204.73;85.13;;;;;;;17.14;31.67;93332.84;4909663;29;20062;-90
2022/04/12 09:34:24;;;;;;;164.60;77.20;;;;;;;17.13;31.83;93331.34;4908018;29;21096;-91
2022/04/12 09:36:49;;;;;;;228.57;121.10;;;;;;;17.15;31.65;93326.13;4911877;29;20040;-90
2022/04/12 09:39:19;;;;;;;195.65;86.07;;;;;;;17.12;31.48;93332.59;4885776;29;20044;-90
2022/04/12 09:41:48;;;;;;;202.15;89.47;;;;;;;17.14;31.61;93322.66;4922178;28;20046;-88
2022/04/12 09:44:17;;;;;;;212.95;88.70;;;;;;;17.14;31.32;93314.47;4936984;29;20043;-89
2022/04/12 09:46:52;;;;;;;193.68;85.18;;;;;;;17.15;31.90;93315.19;4929989;29;20122;-93
2022/04/12 09:49:18;;;;;;;197.38;92.20;;;;;;;17.18;31.82;93311.47;4932208;29;20143;-91
2022/04/12 09:51:48;;;;;;;194.18;88.35;;;;;;;17.14;32.13;93319.91;4938202;28;20059;-90
2022/04/12 09:54:21;;;;;;;150.95;75.15;;;;;;;17.13;32.02;93312.97;4987095;28;20046;-88
2022/04/12 09:56:49;;;;;;;187.10;96.90;;;;;;;17.17;32.18;93309.22;4965787;28;20046;-89
2022/04/12 09:59:15;;;;;;;188.30;94.43;;;;;;;17.19;31.82;93295.81;5005383;28;20049;-94
2022/04/12 10:01:57;;;;;;;219.68;101.80;;;;;;;17.16;31.99;93299.56;4956082;28;20265;-94
2022/04/12 10:04:23;;;;;;;191.45;88.10;;;;;;;17.16;31.70;93303.03;4965307;28;20187;-94
2022/04/12 10:06:51;;;;;;;171.80;82.13;;;;;;;17.17;31.65;93301.03;5013381;28;20044;-93
2022/04/12 10:09:20;;;;;;;259.75;141.90;;;;;;;17.17;31.54;93295.56;5006087;28;20037;-93
2022/04/12 10:11:48;;;;;;;198.25;110.70;;;;;;;17.18;31.83;93299.78;5021713;28;20097;-91
2022/04/12 10:14:18;;;;;;;176.50;101.50;;;;;;;17.17;31.97;93295.56;5020732;22;20057;-92
2022/04/12 10:16:54;;;;;;;163.05;92.97;;;;;;;17.16;31.66;93296.81;5064346;28;20123;-92
2022/04/12 10:19:19;;;;;;;165.25;87.28;;;;;;;17.23;31.82;93285.38;5024966;28;20032;-94
2022/04/12 10:21:45;;;;;;;143.35;80.22;;;;;;;17.20;31.47;93289.09;5034350;28;20047;-92
2022/04/12 10:24:56;;;;;;;163.77;86.68;;;;;;;17.17;32.07;93296.31;5023692;28;20028;-94
2022/04/12 10:27:22;;;;;;;157.35;83.13;;;;;;;17.21;31.94;93290.59;5234725;22;20078;-91
2022/04/12 10:30:17;;;;;;;156.00;87.05;;;;;;;17.18;31.73;93277.94;5041112;28;20116;-92
2022/04/12 10:33:02;;;;;;;130.35;79.20;;;;;;;17.23;32.22;93283.38;5061827;28;20066;-94
2022/04/12 10:35:45;;;;;;;132.00;72.97;;;;;;;17.23;31.61;93280.66;5037742;28;20096;-90
2022/04/12 10:38:11;;;;;;;129.73;73.32;;;;;;;17.23;32.20;93277.91;5056461;28;20061;-91
2022/04/12 10:40:37;;;;;;;149.68;73.90;;;;;;;17.22;32.51;93281.16;5040200;28;20090;-89
2022/04/12 10:43:02;;;;;;;150.63;72.75;;;;;;;17.25;32.72;93271.94;5040655;28;20439;-88
2022/04/12 10:45:34;;;;;;;126.97;70.60;;;;;;;17.27;32.32;93269.44;5016725;28;20292;-91
2022/04/12 10:48:00;;;;;;;123.22;69.55;;;;;;;17.29;32.00;93269.69;5040214;28;20045;-92
2022/04/12 10:50:27;;;;;;;112.65;65.20;;;;;;;17.27;31.96;93270.19;5036335;28;20480;-89
2022/04/12 10:52:53;;;;;;;114.97;65.80;;;;;;;17.23;32.32;93264.25;5025604;28;20067;-92
2022/04/12 10:55:23;;;;;;;101.32;60.60;;;;;;;17.25;32.01;93263.75;5021276;28;20033;-92
2022/04/12 10:58:10;;;;;;;110.82;62.63;;;;;;;17.23;32.16;93267.00;5036054;28;20085;-91
2022/04/12 11:00:36;;;;;;;126.28;78.28;;;;;;;17.24;31.93;93265.75;5068053;28;20051;-90
2022/04/12 11:03:02;;;;;;;141.73;77.38;;;;;;;17.26;32.38;93265.22;5049988;28;20041;-92
2022/04/12 11:05:45;;;;;;;165.70;93.78;;;;;;;17.23;32.14;93266.25;5018782;28;20060;-92
2022/04/12 11:08:13;;;;;;;221.32;121.03;;;;;;;17.24;32.33;93273.19;5078155;22;20056;-90
2022/04/12 11:10:38;;;;;;;174.48;86.00;;;;;;;17.22;32.16;93262.78;5057266;28;20056;-90
2022/04/12 11:13:20;;;;;;;212.73;116.80;;;;;;;17.23;32.18;93266.25;5029944;28;20036;-90
2022/04/12 11:15:49;;;;;;;182.57;111.75;;;;;;;17.24;31.83;93262.28;5030546;28;20086;-92
2022/04/12 11:18:16;;;;;;;236.32;148.48;;;;;;;17.26;32.40;93254.31;5027374;28;20025;-91
2022/04/12 11:20:48;;;;;;;180.05;92.18;;;;;;;17.24;32.43;93259.53;5050275;28;20033;-92
2022/04/12 11:23:14;;;;;;;204.95;119.68;;;;;;;17.27;32.40;93256.53;5027410;28;20092;-90
2022/04/12 11:25:48;;;;;;;192.73;116.55;;;;;;;17.25;32.36;93255.56;5016632;28;20033;-90